Buxton, Mississippi
Current Conditions -  °F | °C
As of 5:15 AM on Monday 20 Oct 2014 (Local Time) from KUTA Reporting Station
Moderate Fog Moderate Fog  
Wind Chill: 43°   Ceiling: 100
Heat Index: 43°   Visibility: 0.25mi
Dew Point: 43°   Wind: 0mph
Humidity: 100%   Direction: NA
Pressure: 30.08"   Gusts: NA
Location:  34.6036°N, 90.124°W
Report Text: KUTA 201015Z AUTO 00000KT 1/4SM FG OVC001 06/06 A3008 RMK AO2
Loading
Personal Weather Stations






























Interactive Weather Map
Tropical Storm Tracking
New forecast layout! Learn more

10-Day Weather Forecast

Advertisements
Track Severe Weather on mobile